Time;durP1;ratioP1;P1;durP2;ratioP2;P2;SDS_P1;SDS_P2;PMS_P1;PMS_P2;Temp;Humidity;BMP_temperature;BMP_pressure;BME280_temperature;BME280_humidity;BME280_pressure;Samples;Min_cycle;Max_cycle;Signal;HPM_P1;HPM_P2
2022/10/19 00:01:25;;;;;;;61.95;57.33;;;;;;;2.63;100.00;101744.00;5017941;28;20045;-81
2022/10/19 00:04:00;;;;;;;65.22;60.53;;;;;;;2.87;100.00;101744.56;5028434;28;20379;-79
2022/10/19 00:06:38;;;;;;;59.92;55.28;;;;;;;2.51;100.00;101746.72;5031870;28;20502;-80
2022/10/19 00:09:17;;;;;;;44.30;40.60;;;;;;;2.66;100.00;101743.75;5023984;28;20482;-80
2022/10/19 00:11:47;;;;;;;46.55;42.65;;;;;;;2.86;100.00;101736.84;5018439;28;20050;-80
2022/10/19 00:14:25;;;;;;;46.35;42.75;;;;;;;2.68;100.00;101740.06;5026055;28;20104;-81
2022/10/19 00:16:54;;;;;;;48.30;44.88;;;;;;;2.63;100.00;101739.63;5023659;28;20057;-81
2022/10/19 00:19:29;;;;;;;75.88;70.80;;;;;;;2.60;100.00;101731.97;5021790;28;20046;-84
2022/10/19 00:21:57;;;;;;;83.85;78.50;;;;;;;2.34;100.00;101733.34;5034894;28;20067;-81
2022/10/19 00:24:28;;;;;;;80.78;75.90;;;;;;;1.77;100.00;101720.47;5019702;28;20041;-82
2022/10/19 00:26:58;;;;;;;97.15;90.88;;;;;;;2.24;100.00;101720.16;5028931;28;20079;-83
2022/10/19 00:29:25;;;;;;;92.05;85.57;;;;;;;2.20;100.00;101716.97;5036305;28;20501;-81
2022/10/19 00:31:52;;;;;;;79.85;74.38;;;;;;;2.23;100.00;101713.25;5028098;28;20125;-80
2022/10/19 00:34:23;;;;;;;88.57;82.97;;;;;;;2.23;100.00;101708.84;5024616;28;20045;-81
2022/10/19 00:36:53;;;;;;;84.95;79.50;;;;;;;2.33;100.00;101702.84;5034411;28;20045;-81
2022/10/19 00:39:20;;;;;;;86.20;80.95;;;;;;;2.68;100.00;101707.75;5024322;28;21598;-80
2022/10/19 00:41:49;;;;;;;78.85;73.95;;;;;;;2.53;100.00;101705.44;5032673;28;20393;-79
2022/10/19 00:44:53;;;;;;;70.95;66.50;;;;;;;2.61;100.00;101693.50;5022592;28;20049;-79
2022/10/19 00:47:23;;;;;;;88.80;83.10;;;;;;;2.54;100.00;101693.16;5020057;28;20120;-80
2022/10/19 00:49:51;;;;;;;74.65;70.05;;;;;;;2.36;100.00;101692.09;5024870;28;20050;-80
2022/10/19 00:52:21;;;;;;;72.30;67.80;;;;;;;2.15;100.00;101686.84;5020531;28;20052;-80
2022/10/19 00:54:52;;;;;;;66.95;62.03;;;;;;;2.19;100.00;101685.66;5019420;28;20111;-79
2022/10/19 00:57:21;;;;;;;60.38;55.63;;;;;;;2.16;100.00;101678.03;5022313;28;20080;-81
2022/10/19 00:59:49;;;;;;;71.93;67.45;;;;;;;2.17;100.00;101669.19;5033400;28;20048;-81
2022/10/19 01:02:24;;;;;;;48.40;45.20;;;;;;;2.01;100.00;101670.47;5018373;28;20108;-81
2022/10/19 01:04:52;;;;;;;44.58;41.30;;;;;;;1.56;100.00;101664.59;5018896;28;20054;-80
2022/10/19 01:07:20;;;;;;;45.75;42.13;;;;;;;1.77;100.00;101656.78;5018480;28;20045;-82
2022/10/19 01:09:48;;;;;;;42.13;38.92;;;;;;;1.62;100.00;101658.84;5026834;28;20111;-79
2022/10/19 01:13:04;;;;;;;48.28;44.40;;;;;;;2.14;100.00;101656.34;5018081;28;20046;-80
2022/10/19 01:15:41;;;;;;;93.75;88.10;;;;;;;1.94;100.00;101652.78;4964594;28;20047;-80
2022/10/19 01:18:21;;;;;;;79.38;74.60;;;;;;;2.01;100.00;101652.13;5019485;28;20045;-80
2022/10/19 01:21:10;;;;;;;72.97;68.38;;;;;;;2.28;100.00;101650.78;5033282;28;20045;-80
2022/10/19 01:24:08;;;;;;;74.90;70.25;;;;;;;2.09;100.00;101650.66;5030539;28;20123;-81
2022/10/19 01:26:53;;;;;;;71.68;67.20;;;;;;;1.94;100.00;101651.00;5024690;28;20405;-79
2022/10/19 01:29:40;;;;;;;68.22;63.63;;;;;;;2.27;100.00;101639.47;5023548;28;20104;-80
2022/10/19 01:32:13;;;;;;;68.95;64.65;;;;;;;2.14;100.00;101638.00;5023875;28;20049;-80
2022/10/19 01:34:47;;;;;;;47.17;43.88;;;;;;;2.23;100.00;101640.69;5029394;28;20041;-80
2022/10/19 01:37:19;;;;;;;46.17;42.53;;;;;;;2.11;100.00;101638.25;5022843;28;20065;-79
2022/10/19 01:39:53;;;;;;;43.05;40.00;;;;;;;1.90;100.00;101636.47;5027686;28;20202;-80
2022/10/19 01:42:29;;;;;;;46.55;43.35;;;;;;;2.12;100.00;101630.28;5027591;28;20049;-81
2022/10/19 01:45:04;;;;;;;46.38;43.13;;;;;;;2.17;100.00;101630.72;5020682;28;20046;-79
2022/10/19 01:47:40;;;;;;;47.70;44.50;;;;;;;2.06;100.00;101625.56;5021930;28;20053;-81
2022/10/19 01:50:13;;;;;;;47.08;43.88;;;;;;;2.10;100.00;101628.75;5028345;28;20049;-79
2022/10/19 01:52:43;;;;;;;43.38;40.40;;;;;;;1.87;100.00;101631.47;5023422;28;20120;-80
2022/10/19 01:55:14;;;;;;;43.03;39.90;;;;;;;2.01;100.00;101625.94;5024833;28;20045;-81
2022/10/19 01:57:46;;;;;;;41.80;39.08;;;;;;;1.97;100.00;101632.41;5022328;28;20556;-79
2022/10/19 02:02:54;;;;;;;40.28;37.40;;;;;;;1.50;100.00;101629.25;5030458;22;20063;-79
2022/10/19 02:05:50;;;;;;;45.55;42.47;;;;;;;1.77;100.00;101627.97;5013031;28;20433;-80
2022/10/19 02:08:22;;;;;;;45.83;42.78;;;;;;;1.83;100.00;101622.22;5013950;28;20053;-79
2022/10/19 02:10:50;;;;;;;43.65;40.70;;;;;;;1.45;100.00;101628.78;5007032;28;20482;-82
2022/10/19 02:13:24;;;;;;;49.47;46.33;;;;;;;1.49;100.00;101639.88;5001637;28;20051;-78
2022/10/19 02:15:54;;;;;;;48.95;45.78;;;;;;;1.53;100.00;101622.94;5010681;28;20046;-79
2022/10/19 02:18:26;;;;;;;49.70;46.47;;;;;;;1.70;100.00;101634.69;5007401;28;20049;-79
2022/10/19 02:20:55;;;;;;;50.08;46.60;;;;;;;1.68;100.00;101626.09;5000420;28;20454;-80
2022/10/19 02:23:26;;;;;;;46.70;43.38;;;;;;;1.57;100.00;101629.59;5003652;28;20042;-79
2022/10/19 02:25:55;;;;;;;58.47;53.70;;;;;;;1.53;100.00;101629.00;5002315;28;20133;-80
2022/10/19 02:28:23;;;;;;;57.58;52.95;;;;;;;1.42;100.00;101629.03;5010413;28;20474;-82
2022/10/19 02:30:50;;;;;;;55.47;50.88;;;;;;;1.21;100.00;101631.63;5010084;28;20115;-79
2022/10/19 02:33:17;;;;;;;86.32;78.00;;;;;;;1.50;100.00;101628.44;5004463;28;20066;-80
2022/10/19 02:35:46;;;;;;;76.03;68.50;;;;;;;1.38;100.00;101627.63;5003020;28;20108;-81
2022/10/19 02:38:19;;;;;;;67.75;61.53;;;;;;;1.30;100.00;101627.41;5007024;28;20061;-80
2022/10/19 02:40:54;;;;;;;64.80;58.67;;;;;;;0.88;100.00;101624.66;5008614;28;20209;-79
2022/10/19 02:43:24;;;;;;;65.38;58.40;;;;;;;0.96;100.00;101621.41;5006444;28;20111;-80
2022/10/19 02:45:56;;;;;;;62.92;56.90;;;;;;;1.08;100.00;101617.84;5003061;28;20049;-79
2022/10/19 02:48:26;;;;;;;66.10;57.88;;;;;;;1.15;100.00;101619.03;5008269;28;20050;-81
2022/10/19 02:50:54;;;;;;;63.10;56.28;;;;;;;1.16;100.00;101619.84;5011594;28;20053;-80
2022/10/19 02:53:20;;;;;;;57.80;52.10;;;;;;;0.97;100.00;101621.31;5009055;28;20041;-81
2022/10/19 02:55:49;;;;;;;55.20;49.28;;;;;;;0.91;100.00;101620.00;5004783;28;20552;-80
2022/10/19 02:58:16;;;;;;;64.75;55.15;;;;;;;1.09;100.00;101622.09;5003587;28;20045;-80
2022/10/19 03:00:42;;;;;;;69.97;57.53;;;;;;;0.86;100.00;101619.53;5005379;28;20050;-80
2022/10/19 03:03:09;;;;;;;74.30;59.17;;;;;;;0.95;100.00;101620.59;5004535;28;20576;-80
2022/10/19 03:05:36;;;;;;;77.03;58.40;;;;;;;0.57;100.00;101621.78;5010865;28;20065;-81
2022/10/19 03:08:05;;;;;;;85.30;63.72;;;;;;;0.56;100.00;101611.47;5009607;28;20049;-80
2022/10/19 03:10:31;;;;;;;69.22;56.05;;;;;;;0.65;100.00;101618.59;5000602;28;20045;-80
2022/10/19 03:13:00;;;;;;;67.00;55.55;;;;;;;0.23;100.00;101610.47;5008270;28;20466;-81
2022/10/19 03:15:28;;;;;;;68.45;54.67;;;;;;;0.75;100.00;101603.00;5011235;28;20061;-80
2022/10/19 03:17:58;;;;;;;54.63;48.97;;;;;;;0.75;100.00;101605.63;4998404;28;20120;-78
2022/10/19 03:20:25;;;;;;;50.83;46.08;;;;;;;0.66;100.00;101607.19;5010029;28;20046;-80
2022/10/19 03:22:51;;;;;;;55.78;50.08;;;;;;;0.90;100.00;101609.66;5004334;28;20042;-81
2022/10/19 03:25:20;;;;;;;50.60;45.47;;;;;;;0.86;100.00;101605.63;5010908;28;20057;-81
2022/10/19 03:27:46;;;;;;;48.47;44.03;;;;;;;0.76;100.00;101608.13;5007569;28;20116;-80
2022/10/19 03:30:13;;;;;;;47.38;43.33;;;;;;;0.66;100.00;101609.78;5012814;28;20053;-80
2022/10/19 03:32:40;;;;;;;59.05;54.20;;;;;;;0.79;100.00;101602.66;5011504;28;20111;-80
2022/10/19 03:35:08;;;;;;;56.58;51.47;;;;;;;0.59;100.00;101593.75;5007812;28;20458;-80
2022/10/19 03:37:34;;;;;;;60.38;54.78;;;;;;;0.67;100.00;101590.56;4999589;28;20433;-80
2022/10/19 03:40:01;;;;;;;58.10;53.17;;;;;;;0.57;100.00;101597.44;5003894;28;20449;-80
2022/10/19 03:42:30;;;;;;;58.78;53.38;;;;;;;0.60;100.00;101587.56;5005371;28;20108;-80
2022/10/19 03:44:57;;;;;;;54.28;49.45;;;;;;;0.05;100.00;101585.75;5007930;28;20057;-79
2022/10/19 03:47:24;;;;;;;54.88;50.38;;;;;;;0.44;100.00;101587.09;5006779;28;20056;-79
2022/10/19 03:49:50;;;;;;;56.03;51.30;;;;;;;0.37;100.00;101578.91;5005078;28;20525;-79
2022/10/19 03:52:18;;;;;;;85.53;78.22;;;;;;;0.63;100.00;101583.88;5009615;28;20053;-78
2022/10/19 03:54:45;;;;;;;76.63;70.07;;;;;;;0.46;100.00;101585.22;5005263;28;20046;-80
2022/10/19 03:57:12;;;;;;;82.13;74.82;;;;;;;0.83;100.00;101583.16;5005732;28;20054;-80
2022/10/19 03:59:40;;;;;;;82.72;75.25;;;;;;;1.22;100.00;101574.88;5002886;28;20104;-79
2022/10/19 04:02:07;;;;;;;77.95;70.88;;;;;;;1.24;100.00;101575.56;5006395;28;20058;-78
2022/10/19 04:04:34;;;;;;;53.85;49.78;;;;;;;1.07;100.00;101569.09;5008037;28;20050;-79
2022/10/19 04:07:01;;;;;;;51.08;47.08;;;;;;;1.22;100.00;101578.31;5001942;28;20050;-78
2022/10/19 04:09:27;;;;;;;52.58;48.05;;;;;;;1.15;100.00;101574.53;5008134;28;20053;-80
2022/10/19 04:11:54;;;;;;;48.83;45.13;;;;;;;0.85;100.00;101568.19;5001722;28;20473;-80
2022/10/19 04:14:22;;;;;;;49.13;44.92;;;;;;;0.66;100.00;101573.19;4999458;28;20046;-80
2022/10/19 04:16:50;;;;;;;51.65;47.50;;;;;;;0.80;100.00;101580.78;5003557;28;20386;-79
2022/10/19 04:19:16;;;;;;;50.83;46.83;;;;;;;0.90;100.00;101567.81;5005205;28;20063;-79
2022/10/19 04:21:44;;;;;;;49.60;45.63;;;;;;;0.87;100.00;101568.88;5003141;28;20046;-79
2022/10/19 04:24:13;;;;;;;54.42;50.38;;;;;;;0.89;100.00;101568.75;5004494;28;20048;-79
2022/10/19 04:26:43;;;;;;;50.65;46.42;;;;;;;0.79;100.00;101573.06;5002614;28;20058;-79
2022/10/19 04:29:11;;;;;;;48.42;44.92;;;;;;;0.54;100.00;101574.97;4996869;28;20058;-79
2022/10/19 04:31:38;;;;;;;43.42;39.92;;;;;;;0.34;100.00;101568.69;5003345;28;20054;-78
2022/10/19 04:34:07;;;;;;;46.40;42.70;;;;;;;0.62;100.00;101567.38;5005445;28;20045;-79
2022/10/19 04:36:34;;;;;;;47.10;42.60;;;;;;;0.39;100.00;101568.31;5002978;28;20444;-79
2022/10/19 04:39:00;;;;;;;45.25;41.40;;;;;;;0.47;100.00;101571.19;5010294;28;20050;-79
2022/10/19 04:41:29;;;;;;;50.22;45.78;;;;;;;0.77;100.00;101559.28;5009159;28;20050;-81
2022/10/19 04:44:05;;;;;;;46.08;41.88;;;;;;;0.64;100.00;101560.25;5004629;28;20061;-78
2022/10/19 04:46:34;;;;;;;43.50;39.63;;;;;;;0.58;100.00;101567.75;5004267;28;20141;-79
2022/10/19 04:49:05;;;;;;;44.92;41.15;;;;;;;0.88;100.00;101567.94;5005541;28;20471;-78
2022/10/19 04:51:33;;;;;;;48.40;43.50;;;;;;;0.81;100.00;101564.13;5013503;28;20123;-80
2022/10/19 04:54:03;;;;;;;47.88;44.00;;;;;;;0.79;100.00;101565.22;5004683;28;20042;-79
2022/10/19 04:56:33;;;;;;;43.80;39.53;;;;;;;0.81;100.00;101561.50;5011418;28;20103;-80
2022/10/19 04:59:01;;;;;;;44.75;39.92;;;;;;;0.84;100.00;101560.44;5021431;28;20060;-78
2022/10/19 05:01:30;;;;;;;45.35;41.35;;;;;;;0.97;100.00;101555.91;5024324;28;20120;-79
2022/10/19 05:03:58;;;;;;;46.40;42.33;;;;;;;1.00;100.00;101565.28;5021941;28;20135;-81
2022/10/19 05:06:26;;;;;;;47.35;43.47;;;;;;;1.10;100.00;101556.56;5025631;28;20046;-80
2022/10/19 05:08:54;;;;;;;48.00;43.58;;;;;;;1.29;100.00;101558.53;5023516;28;20490;-80
2022/10/19 05:11:24;;;;;;;52.17;47.88;;;;;;;1.28;100.00;101558.66;5018496;28;20045;-80
2022/10/19 05:13:52;;;;;;;58.33;53.22;;;;;;;1.33;100.00;101554.72;5021004;28;20049;-80
2022/10/19 05:16:23;;;;;;;55.88;50.55;;;;;;;1.49;100.00;101551.69;4987106;28;20490;-78
2022/10/19 05:18:54;;;;;;;56.55;51.55;;;;;;;1.73;100.00;101551.44;5019960;28;20491;-80
2022/10/19 05:21:22;;;;;;;63.27;56.70;;;;;;;1.78;100.00;101557.09;5023955;28;20084;-79
2022/10/19 05:23:52;;;;;;;74.85;67.60;;;;;;;2.04;100.00;101554.09;5021996;28;20123;-80
2022/10/19 05:26:21;;;;;;;71.28;64.88;;;;;;;2.36;100.00;101561.00;5018724;28;20115;-79
2022/10/19 05:28:49;;;;;;;55.65;51.05;;;;;;;2.71;100.00;101550.91;5017919;28;20046;-80
2022/10/19 05:31:20;;;;;;;52.45;48.28;;;;;;;3.00;100.00;101547.53;5011921;28;20048;-80
2022/10/19 05:33:48;;;;;;;51.95;47.65;;;;;;;3.03;100.00;101538.56;5018541;28;20054;-80
2022/10/19 05:36:20;;;;;;;50.83;46.85;;;;;;;3.30;100.00;101540.47;5024487;28;20488;-78
2022/10/19 05:38:51;;;;;;;45.63;41.75;;;;;;;2.53;100.00;101536.78;5021571;28;20107;-78
2022/10/19 05:41:21;;;;;;;55.00;50.55;;;;;;;3.30;100.00;101536.09;5013656;28;20073;-80
2022/10/19 05:43:52;;;;;;;52.17;48.30;;;;;;;3.78;100.00;101540.47;5015838;28;20061;-79
2022/10/19 05:46:19;;;;;;;46.92;42.65;;;;;;;3.76;100.00;101546.81;5013049;28;20463;-79
2022/10/19 05:48:46;;;;;;;51.30;46.95;;;;;;;4.16;100.00;101551.00;5005559;28;20456;-79
2022/10/19 05:51:16;;;;;;;50.67;46.55;;;;;;;3.74;100.00;101546.13;5009442;28;20123;-78
2022/10/19 05:53:44;;;;;;;54.33;50.42;;;;;;;4.57;100.00;101539.22;5011694;28;20544;-78
2022/10/19 05:56:15;;;;;;;53.15;49.25;;;;;;;4.83;100.00;101531.44;5010155;28;20053;-82
2022/10/19 05:58:45;;;;;;;58.55;53.38;;;;;;;5.12;100.00;101533.88;5011836;28;20054;-79
2022/10/19 06:01:12;;;;;;;58.13;53.50;;;;;;;5.28;100.00;101535.81;5001239;28;20101;-80
2022/10/19 06:03:39;;;;;;;55.20;51.08;;;;;;;5.64;100.00;101538.41;5010845;28;20113;-80
2022/10/19 06:06:08;;;;;;;55.13;50.63;;;;;;;6.01;100.00;101532.09;5009595;28;20050;-80
2022/10/19 06:08:36;;;;;;;57.78;53.00;;;;;;;6.26;100.00;101538.31;5006523;28;20104;-79
2022/10/19 06:11:08;;;;;;;52.55;48.05;;;;;;;6.45;100.00;101530.19;5008907;28;20112;-79
2022/10/19 06:13:35;;;;;;;50.65;46.03;;;;;;;6.58;100.00;101524.47;5002543;28;20058;-80
2022/10/19 06:16:03;;;;;;;54.17;49.00;;;;;;;6.74;100.00;101521.84;5004193;28;20050;-79
2022/10/19 06:18:31;;;;;;;52.47;48.17;;;;;;;7.05;100.00;101518.63;5009797;28;20042;-79
2022/10/19 06:21:02;;;;;;;51.38;47.38;;;;;;;7.24;100.00;101528.06;5007104;28;20120;-80
2022/10/19 06:23:29;;;;;;;49.80;45.25;;;;;;;7.74;100.00;101530.50;5007204;28;20142;-79
2022/10/19 06:25:56;;;;;;;50.25;46.40;;;;;;;7.57;100.00;101527.06;5002870;28;20053;-79
2022/10/19 06:28:23;;;;;;;48.92;45.08;;;;;;;7.87;100.00;101530.00;5003295;28;20512;-81
2022/10/19 06:30:50;;;;;;;48.67;45.10;;;;;;;8.33;100.00;101527.56;5007200;28;20053;-79
2022/10/19 06:33:18;;;;;;;46.83;43.13;;;;;;;8.65;100.00;101523.16;5014360;28;20053;-80
2022/10/19 06:35:45;;;;;;;48.35;44.97;;;;;;;9.06;100.00;101520.25;5008772;28;20519;-79
2022/10/19 06:38:12;;;;;;;49.63;46.20;;;;;;;9.22;100.00;101509.53;5007691;28;20057;-81
2022/10/19 06:40:40;;;;;;;49.20;45.53;;;;;;;9.61;100.00;101508.53;5004160;28;20077;-80
2022/10/19 06:43:06;;;;;;;49.08;44.28;;;;;;;9.83;100.00;101504.19;5004909;28;20050;-79
2022/10/19 06:45:33;;;;;;;47.53;43.30;;;;;;;10.69;100.00;101508.00;5000080;28;20386;-79
2022/10/19 06:48:01;;;;;;;46.88;43.08;;;;;;;10.80;100.00;101503.19;5005814;28;20046;-78
2022/10/19 06:50:32;;;;;;;61.55;48.08;;;;;;;10.81;100.00;101500.38;5000257;28;21611;-80
2022/10/19 06:52:59;;;;;;;47.85;44.15;;;;;;;11.55;100.00;101497.34;5003765;28;20467;-80
2022/10/19 06:55:26;;;;;;;48.53;44.58;;;;;;;11.29;100.00;101492.66;5005767;28;20522;-79
2022/10/19 06:57:53;;;;;;;47.08;43.38;;;;;;;11.83;100.00;101494.69;5009428;28;20124;-80
2022/10/19 07:00:20;;;;;;;44.65;41.45;;;;;;;12.08;100.00;101496.91;5009096;28;20109;-80
2022/10/19 07:02:47;;;;;;;47.45;43.97;;;;;;;12.55;100.00;101492.59;5014883;28;20147;-80
2022/10/19 07:05:13;;;;;;;46.75;43.22;;;;;;;12.63;100.00;101496.94;5013273;28;20049;-80
2022/10/19 07:07:42;;;;;;;47.28;43.40;;;;;;;12.72;100.00;101491.22;5009199;28;20049;-79
2022/10/19 07:10:10;;;;;;;51.47;46.15;;;;;;;13.29;100.00;101479.22;5009809;28;20038;-81
2022/10/19 07:12:36;;;;;;;48.63;44.85;;;;;;;13.72;100.00;101480.63;5008240;28;20104;-81
2022/10/19 07:15:04;;;;;;;49.95;45.28;;;;;;;14.41;100.00;101487.19;5005864;28;20050;-80
2022/10/19 07:17:31;;;;;;;51.47;47.60;;;;;;;14.71;100.00;101476.00;5006456;28;20144;-79
2022/10/19 07:19:58;;;;;;;48.03;44.78;;;;;;;15.06;100.00;101471.81;5014653;28;20049;-80
2022/10/19 07:22:26;;;;;;;50.17;46.97;;;;;;;14.61;100.00;101466.59;5008739;28;20050;-79
2022/10/19 07:24:54;;;;;;;50.60;47.30;;;;;;;12.96;100.00;101468.50;5012776;28;20095;-80
2022/10/19 07:27:21;;;;;;;51.22;48.15;;;;;;;15.07;100.00;101459.28;5010751;28;20108;-83
2022/10/19 07:29:48;;;;;;;45.45;42.35;;;;;;;13.92;100.00;101464.56;5009359;28;20112;-80
2022/10/19 07:32:15;;;;;;;46.53;43.50;;;;;;;15.48;100.00;101450.69;4980761;28;20139;-81
2022/10/19 07:34:42;;;;;;;45.72;42.83;;;;;;;14.76;100.00;101452.88;5004894;28;20042;-80
2022/10/19 07:37:14;;;;;;;44.90;41.97;;;;;;;14.04;100.00;101448.69;5005469;28;20123;-81
2022/10/19 07:39:41;;;;;;;44.65;41.55;;;;;;;14.58;100.00;101445.63;4995434;28;20121;-77
2022/10/19 07:42:10;;;;;;;44.83;41.85;;;;;;;14.93;100.00;101452.38;5006678;28;20387;-80
2022/10/19 07:44:36;;;;;;;43.58;40.90;;;;;;;15.06;100.00;101437.03;4999485;28;20104;-80
2022/10/19 07:47:05;;;;;;;44.70;41.60;;;;;;;16.85;100.00;101434.22;5006724;28;20135;-80
2022/10/19 07:49:31;;;;;;;42.80;39.95;;;;;;;16.65;97.15;101439.03;5007692;28;20042;-80
2022/10/19 07:51:58;;;;;;;44.45;41.28;;;;;;;16.42;97.17;101437.88;5002152;28;20296;-80
2022/10/19 07:54:26;;;;;;;43.92;41.33;;;;;;;14.68;100.00;101438.97;4994638;28;20544;-80
2022/10/19 07:56:53;;;;;;;43.20;40.53;;;;;;;14.61;100.00;101436.31;5003925;28;20120;-80
2022/10/19 07:59:21;;;;;;;44.58;41.70;;;;;;;16.24;93.76;101435.22;5003710;28;20120;-81
2022/10/19 08:01:49;;;;;;;44.30;41.50;;;;;;;17.44;88.28;101430.75;5004872;28;20453;-79
2022/10/19 08:04:17;;;;;;;44.75;41.85;;;;;;;16.58;86.99;101427.56;5004414;28;20108;-79
2022/10/19 08:06:45;;;;;;;46.60;43.70;;;;;;;15.70;89.31;101426.19;5002735;28;20399;-80
2022/10/19 08:09:12;;;;;;;47.33;44.38;;;;;;;16.76;84.89;101434.75;5000898;28;20456;-79
2022/10/19 08:11:38;;;;;;;46.78;43.67;;;;;;;16.02;88.87;101437.56;5005730;28;20062;-79
2022/10/19 08:14:05;;;;;;;45.47;42.80;;;;;;;15.70;88.58;101443.09;5003106;28;20046;-79
2022/10/19 08:16:37;;;;;;;47.17;43.95;;;;;;;16.42;95.46;101437.06;5000269;28;20042;-80
2022/10/19 08:19:07;;;;;;;46.17;43.33;;;;;;;14.83;97.22;101434.97;5004981;28;20073;-79
2022/10/19 08:21:35;;;;;;;44.65;41.75;;;;;;;15.45;100.00;101428.88;4999299;28;20081;-80
2022/10/19 08:24:02;;;;;;;47.08;44.25;;;;;;;17.09;95.15;101427.00;5000712;28;20058;-81
2022/10/19 08:26:30;;;;;;;45.72;43.03;;;;;;;16.48;95.41;101431.59;5007133;28;20120;-80
2022/10/19 08:29:01;;;;;;;46.78;44.17;;;;;;;17.22;80.73;101423.28;5001257;28;20442;-80
2022/10/19 08:31:29;;;;;;;50.15;47.25;;;;;;;15.66;91.54;101436.50;5002680;28;20046;-79
2022/10/19 08:33:57;;;;;;;45.75;42.80;;;;;;;16.13;88.23;101434.16;5004376;28;20060;-79
2022/10/19 08:36:24;;;;;;;44.13;41.40;;;;;;;16.69;91.44;101438.31;5005168;28;20054;-79
2022/10/19 08:38:52;;;;;;;44.60;41.55;;;;;;;16.74;87.15;101440.34;5006543;28;20074;-80
2022/10/19 08:41:24;;;;;;;46.45;43.47;;;;;;;17.11;78.83;101429.47;5004923;28;20600;-79
2022/10/19 08:44:13;;;;;;;44.50;41.97;;;;;;;16.51;81.59;101429.53;5016094;28;20127;-80
2022/10/19 08:46:53;;;;;;;46.25;43.33;;;;;;;16.33;90.03;101439.25;5015144;28;20045;-79
2022/10/19 08:49:25;;;;;;;47.90;45.03;;;;;;;15.09;95.14;101433.13;5006861;28;20046;-78
2022/10/19 08:51:58;;;;;;;47.38;44.47;;;;;;;16.54;84.80;101432.56;5004709;28;20379;-78
2022/10/19 08:54:32;;;;;;;46.20;43.58;;;;;;;15.32;88.68;101438.69;5007942;28;20049;-79
2022/10/19 08:57:08;;;;;;;45.85;42.80;;;;;;;15.86;88.51;101441.69;5002108;28;20118;-79
2022/10/19 08:59:43;;;;;;;46.20;43.20;;;;;;;16.22;85.00;101440.84;5004389;28;20046;-78
2022/10/19 09:02:16;;;;;;;45.97;43.28;;;;;;;16.17;88.71;101435.31;5004115;28;20121;-79
2022/10/19 09:04:49;;;;;;;46.05;42.85;;;;;;;17.30;69.76;101432.84;5002087;28;20050;-79
2022/10/19 09:07:28;;;;;;;47.38;44.20;;;;;;;17.37;69.88;101420.97;5011299;28;20105;-79
2022/10/19 09:09:58;;;;;;;47.28;44.47;;;;;;;18.37;61.86;101429.75;5001852;28;20115;-79
2022/10/19 09:12:35;;;;;;;48.03;44.80;;;;;;;17.90;64.74;101427.22;5005222;28;20050;-79
2022/10/19 09:15:04;;;;;;;46.00;43.25;;;;;;;16.59;74.89;101431.91;5011249;28;20054;-80
2022/10/19 09:17:32;;;;;;;45.42;42.92;;;;;;;19.22;56.97;101436.06;5003549;28;20068;-80
2022/10/19 09:20:13;;;;;;;48.60;45.50;;;;;;;18.78;59.64;101425.13;5003914;28;20129;-80
2022/10/19 09:22:42;;;;;;;46.67;43.53;;;;;;;19.10;56.71;101429.97;5002543;28;20513;-79
2022/10/19 09:25:14;;;;;;;46.58;43.80;;;;;;;18.81;54.40;101418.44;5003522;28;20125;-80
2022/10/19 09:27:46;;;;;;;48.63;45.47;;;;;;;19.35;54.21;101416.88;5000743;28;20569;-82
2022/10/19 09:30:18;;;;;;;48.42;45.15;;;;;;;19.88;59.61;101409.25;5009504;28;20112;-79
2022/10/19 09:32:47;;;;;;;48.80;45.63;;;;;;;21.58;54.79;101413.22;5004782;28;20053;-81
2022/10/19 09:35:26;;;;;;;49.70;46.15;;;;;;;21.16;51.54;101408.59;5006370;28;20475;-80
2022/10/19 09:37:56;;;;;;;49.25;46.08;;;;;;;20.62;50.16;101413.31;5009498;28;20054;-80
2022/10/19 09:40:26;;;;;;;47.53;44.60;;;;;;;17.51;58.03;101424.19;5004859;28;20049;-79
2022/10/19 09:42:57;;;;;;;49.55;46.45;;;;;;;19.09;53.73;101409.47;5006137;28;20422;-80
2022/10/19 09:45:35;;;;;;;48.33;45.10;;;;;;;20.02;50.02;101410.50;5003907;28;20458;-79
2022/10/19 09:48:14;;;;;;;47.17;44.17;;;;;;;20.16;50.93;101405.53;5004992;28;20465;-80
2022/10/19 09:50:45;;;;;;;47.30;44.25;;;;;;;19.79;49.43;101398.09;5009025;28;20414;-79
2022/10/19 09:53:19;;;;;;;48.38;45.13;;;;;;;21.41;47.36;101388.25;5000054;28;20058;-79
2022/10/19 09:55:51;;;;;;;49.10;46.08;;;;;;;21.50;44.41;101383.97;5008680;28;20377;-79
2022/10/19 09:58:34;;;;;;;48.58;45.50;;;;;;;19.31;48.99;101388.81;5003587;28;20136;-79
2022/10/19 10:01:05;;;;;;;47.58;44.20;;;;;;;21.96;44.64;101387.66;5004482;28;20046;-80
2022/10/19 10:03:45;;;;;;;47.60;44.45;;;;;;;18.85;48.64;101387.28;5010636;28;20064;-79
2022/10/19 10:06:17;;;;;;;49.58;46.08;;;;;;;18.81;53.53;101391.53;5006429;28;20050;-80
2022/10/19 10:08:56;;;;;;;48.22;45.22;;;;;;;17.67;54.11;101392.31;5007566;28;20058;-79
2022/10/19 10:11:31;;;;;;;47.53;44.42;;;;;;;18.76;54.13;101376.94;5001241;28;20057;-79
2022/10/19 10:14:04;;;;;;;48.25;44.78;;;;;;;19.23;51.64;101379.25;5001794;28;20054;-80
2022/10/19 10:16:38;;;;;;;50.00;46.53;;;;;;;19.81;49.20;101377.09;5007408;28;20056;-81
2022/10/19 10:19:14;;;;;;;48.35;45.13;;;;;;;20.50;46.25;101371.06;5007888;28;20050;-80
2022/10/19 10:21:51;;;;;;;48.03;44.97;;;;;;;18.57;53.41;101367.44;5009057;28;20053;-79
2022/10/19 10:24:22;;;;;;;49.90;46.58;;;;;;;19.52;50.74;101362.16;5005709;28;20477;-80
2022/10/19 10:26:53;;;;;;;49.15;46.05;;;;;;;21.11;46.96;101343.75;5004787;28;20062;-79
2022/10/19 10:29:27;;;;;;;48.90;45.42;;;;;;;20.30;47.68;101335.81;5004638;28;20108;-79
2022/10/19 10:31:58;;;;;;;48.28;44.83;;;;;;;18.86;54.29;101333.22;5006459;28;20497;-80
2022/10/19 10:34:39;;;;;;;48.75;45.70;;;;;;;20.43;47.69;101330.00;5001490;28;20050;-79
2022/10/19 10:37:13;;;;;;;49.55;45.92;;;;;;;23.40;41.42;101320.78;4999895;28;20047;-79
2022/10/19 10:39:42;;;;;;;49.53;46.22;;;;;;;20.67;46.23;101314.31;5000358;28;20057;-79
2022/10/19 10:42:26;;;;;;;50.60;47.03;;;;;;;19.92;46.21;101326.00;5003375;28;20046;-81
2022/10/19 10:44:58;;;;;;;53.30;49.03;;;;;;;21.73;45.13;101302.44;5005740;28;20062;-79
2022/10/19 10:47:31;;;;;;;;;;;;;;;20.65;48.50;101304.84;5011021;28;20326;-79
2022/10/19 10:50:05;;;;;;;49.08;45.78;;;;;;;21.59;44.50;101301.31;5009036;28;20589;-79
2022/10/19 10:52:40;;;;;;;48.40;44.70;;;;;;;20.92;45.26;101302.06;5009119;28;20046;-80
2022/10/19 10:55:36;;;;;;;;;;;;;;;;;;;;;
2022/10/19 10:58:17;;;;;;;48.33;45.10;;;;;;;21.85;43.45;101285.16;5009264;28;20063;-81
2022/10/19 11:00:48;;;;;;;49.05;45.50;;;;;;;21.56;44.08;101274.00;5003586;28;20104;-79
2022/10/19 11:03:21;;;;;;;49.97;46.83;;;;;;;23.61;43.12;101280.03;5003561;28;20060;-79
2022/10/19 11:05:56;;;;;;;49.83;46.75;;;;;;;21.14;41.18;101267.59;5002867;28;20113;-79
2022/10/19 11:08:44;;;;;;;52.88;49.17;;;;;;;21.14;42.85;101266.78;5006062;28;20116;-79
2022/10/19 11:11:18;;;;;;;46.88;43.75;;;;;;;21.12;43.36;101255.41;5009944;28;20061;-79
2022/10/19 11:14:01;;;;;;;47.58;44.47;;;;;;;21.21;43.55;101262.78;5004438;28;20042;-79
2022/10/19 11:16:33;;;;;;;50.58;46.55;;;;;;;22.46;42.10;101255.47;5003195;28;20042;-80
2022/10/19 11:19:07;;;;;;;52.92;49.40;;;;;;;24.10;39.33;101257.50;5011068;28;20050;-81
2022/10/19 11:21:45;;;;;;;53.60;50.35;;;;;;;23.63;38.73;101254.28;5002609;28;20057;-79
2022/10/19 11:24:26;;;;;;;59.63;55.95;;;;;;;26.21;34.36;101241.91;5003843;28;20057;-79
2022/10/19 11:27:10;;;;;;;58.22;54.33;;;;;;;23.83;36.80;101247.94;4999297;28;20136;-78
2022/10/19 11:29:59;;;;;;;53.40;50.38;;;;;;;22.88;38.44;101243.47;5000126;28;20046;-79